Time;durP1;ratioP1;P1;durP2;ratioP2;P2;SDS_P1;SDS_P2;PMS_P1;PMS_P2;Temp;Humidity;BMP_temperature;BMP_pressure;BME280_temperature;BME280_humidity;BME280_pressure;Samples;Min_cycle;Max_cycle;Signal;HPM_P1;HPM_P2
2022/05/22 00:00:52;;;;;;;3.00;2.77;;;;;23.00;100805.00;;;;2067707;28;20211;-58
2022/05/22 00:01:53;;;;;;;3.00;2.67;;;;;23.00;100804.00;;;;2071604;28;20315;-57
2022/05/22 00:02:56;;;;;;;2.97;2.50;;;;;23.00;100798.00;;;;2077072;28;20209;-57
2022/05/22 00:03:56;;;;;;;3.22;2.38;;;;;23.00;100799.00;;;;2077556;28;20240;-60
2022/05/22 00:04:57;;;;;;;3.20;2.90;;;;;23.00;100796.00;;;;2079492;28;20621;-58
2022/05/22 00:05:57;;;;;;;2.90;2.70;;;;;23.00;100794.00;;;;2077934;28;20765;-57
2022/05/22 00:06:58;;;;;;;2.80;2.50;;;;;23.00;100797.00;;;;2079177;28;20210;-57
2022/05/22 00:07:58;;;;;;;3.30;3.00;;;;;23.00;100791.00;;;;2079156;28;20292;-60
2022/05/22 00:08:58;;;;;;;2.97;2.67;;;;;23.00;100790.00;;;;2067580;28;20251;-58
2022/05/22 00:10:01;;;;;;;3.03;2.57;;;;;23.00;100797.00;;;;2079075;28;20202;-58
2022/05/22 00:11:01;;;;;;;2.55;2.35;;;;;23.00;100798.00;;;;2079493;28;20206;-58
2022/05/22 00:12:02;;;;;;;3.20;2.87;;;;;23.00;100799.00;;;;2079561;28;20202;-58
2022/05/22 00:13:03;;;;;;;3.47;2.97;;;;;23.00;100798.00;;;;2079003;28;20264;-57
2022/05/22 00:14:03;;;;;;;3.00;2.70;;;;;23.00;100797.00;;;;2079263;28;20202;-58
2022/05/22 00:15:04;;;;;;;2.40;2.20;;;;;23.00;100797.00;;;;2079120;28;20332;-58
2022/05/22 00:17:23;;;;;;;3.28;2.90;;;;;23.00;100790.00;;;;2072895;28;20214;-57
2022/05/22 00:18:24;;;;;;;4.60;3.20;;;;;23.00;100795.00;;;;2078782;28;20762;-58
2022/05/22 00:19:27;;;;;;;3.07;2.50;;;;;22.90;100787.00;;;;2079720;28;20633;-55
2022/05/22 00:20:27;;;;;;;2.83;2.50;;;;;22.90;100784.00;;;;2071175;28;20253;-58
2022/05/22 00:21:28;;;;;;;2.70;2.50;;;;;23.00;100792.00;;;;2066654;28;20379;-55
2022/05/22 00:22:28;;;;;;;3.53;3.03;;;;;22.90;100785.00;;;;2074477;28;20203;-55
2022/05/22 00:23:31;;;;;;;2.57;2.37;;;;;22.90;100787.00;;;;2082613;28;20206;-55
2022/05/22 00:24:32;;;;;;;2.65;2.45;;;;;23.00;100792.00;;;;2077302;28;20202;-56
2022/05/22 00:25:32;;;;;;;3.07;2.43;;;;;23.00;100790.00;;;;2078752;28;20266;-56
2022/05/22 00:26:33;;;;;;;2.80;2.53;;;;;22.90;100798.00;;;;2072091;28;20206;-55
2022/05/22 00:27:33;;;;;;;3.20;2.90;;;;;22.90;100804.00;;;;2075322;28;20217;-58
2022/05/22 00:28:33;;;;;;;3.43;2.77;;;;;22.90;100796.00;;;;2072558;28;20206;-59
2022/05/22 00:29:34;;;;;;;2.70;2.50;;;;;22.90;100790.00;;;;2078899;28;20213;-57
2022/05/22 00:30:34;;;;;;;3.03;2.73;;;;;23.00;100789.00;;;;2078514;28;20244;-57
2022/05/22 00:31:34;;;;;;;2.70;2.50;;;;;22.90;100773.00;;;;2077187;28;20217;-58
2022/05/22 00:32:35;;;;;;;2.83;2.57;;;;;23.00;100788.00;;;;2070568;28;20214;-59
2022/05/22 00:33:35;;;;;;;2.70;2.50;;;;;22.90;100785.00;;;;2059790;28;20275;-56
2022/05/22 00:34:36;;;;;;;2.80;2.23;;;;;22.90;100786.00;;;;2061885;28;20211;-58
2022/05/22 00:35:37;;;;;;;3.00;2.70;;;;;22.90;100779.00;;;;2069210;28;20644;-57
2022/05/22 00:36:38;;;;;;;2.50;2.30;;;;;22.90;100785.00;;;;2071078;28;20507;-57
2022/05/22 00:37:38;;;;;;;3.13;2.63;;;;;22.90;100783.00;;;;2070889;28;20210;-57
2022/05/22 00:38:38;;;;;;;2.63;2.43;;;;;22.90;100788.00;;;;2074124;28;20256;-58
2022/05/22 00:39:39;;;;;;;2.83;2.50;;;;;22.90;100775.00;;;;2078802;28;20210;-58
2022/05/22 00:40:39;;;;;;;3.07;2.77;;;;;22.90;100788.00;;;;2078304;28;20205;-57
2022/05/22 00:41:39;;;;;;;2.87;2.53;;;;;22.90;100784.00;;;;2070455;28;20243;-58
2022/05/22 00:42:43;;;;;;;2.40;2.20;;;;;22.90;100783.00;;;;2061995;28;20222;-56
2022/05/22 00:43:45;;;;;;;2.25;2.05;;;;;22.90;100779.00;;;;2070522;28;20251;-58
2022/05/22 00:44:46;;;;;;;2.55;2.05;;;;;22.90;100786.00;;;;2077846;28;20312;-57
2022/05/22 00:45:46;;;;;;;2.87;2.30;;;;;22.90;100772.00;;;;2069030;28;20229;-56
2022/05/22 00:46:47;;;;;;;2.93;2.47;;;;;22.90;100773.00;;;;2070234;28;20218;-56
2022/05/22 00:47:47;;;;;;;3.03;2.50;;;;;22.90;100786.00;;;;2069819;28;20718;-58
2022/05/22 00:48:49;;;;;;;2.47;2.27;;;;;22.90;100774.00;;;;2070340;28;20441;-58
2022/05/22 00:49:50;;;;;;;3.10;2.80;;;;;22.90;100780.00;;;;2070267;28;20218;-58
2022/05/22 00:50:50;;;;;;;3.13;2.50;;;;;22.90;100763.00;;;;2061994;28;20306;-57
2022/05/22 00:51:59;;;;;;;3.03;2.20;;;;;22.90;100762.00;;;;2069891;28;20687;-58
2022/05/22 00:53:00;;;;;;;2.70;2.50;;;;;22.90;100763.00;;;;2071220;28;20240;-58
2022/05/22 00:54:03;;;;;;;2.63;2.13;;;;;22.90;100765.00;;;;2070220;28;20257;-58
2022/05/22 00:55:12;;;;;;;2.90;2.60;;;;;22.90;100751.00;;;;2078151;28;20221;-58
2022/05/22 00:56:14;;;;;;;2.90;2.60;;;;;22.90;100768.00;;;;2076474;28;20213;-58
2022/05/22 00:57:24;;;;;;;2.60;2.40;;;;;22.90;100770.00;;;;2070383;28;20219;-55
2022/05/22 00:58:25;;;;;;;2.60;2.30;;;;;22.90;100769.00;;;;2068979;28;20218;-57
2022/05/22 00:59:27;;;;;;;2.80;2.50;;;;;22.90;100770.00;;;;2061985;28;20222;-57
2022/05/22 01:00:31;;;;;;;3.42;3.08;;;;;22.90;100775.00;;;;2066900;28;20218;-57
2022/05/22 01:01:31;;;;;;;2.47;2.28;;;;;22.90;100751.00;;;;2069917;28;20214;-58
2022/05/22 01:03:26;;;;;;;2.83;2.53;;;;;22.90;100763.00;;;;2059514;28;20203;-57
2022/05/22 01:03:53;;;;;;;2.55;2.35;;;;;22.90;100762.00;;;;2076039;28;20589;-58
2022/05/22 01:04:54;;;;;;;2.75;2.45;;;;;22.90;100779.00;;;;2070876;28;20252;-58
2022/05/22 01:05:57;;;;;;;2.90;2.60;;;;;22.90;100773.00;;;;2063905;28;20273;-58
2022/05/22 01:06:58;;;;;;;2.95;2.30;;;;;22.90;100767.00;;;;2076180;28;20243;-56
2022/05/22 01:07:58;;;;;;;3.40;3.10;;;;;22.90;100767.00;;;;2070603;28;20222;-57
2022/05/22 01:08:59;;;;;;;3.20;2.90;;;;;22.90;100771.00;;;;2066981;28;20217;-58
2022/05/22 01:09:59;;;;;;;3.97;2.60;;;;;22.90;100757.00;;;;2073665;28;20222;-62
2022/05/22 01:11:14;;;;;;;2.67;2.47;;;;;22.90;100758.00;;;;2076881;28;20222;-58
2022/05/22 01:12:21;;;;;;;3.15;2.70;;;;;22.90;100755.00;;;;2066060;28;20583;-57
2022/05/22 01:13:30;;;;;;;2.42;2.22;;;;;22.90;100753.00;;;;2067122;28;20281;-58
2022/05/22 01:14:31;;;;;;;2.72;2.40;;;;;22.90;100751.00;;;;2055168;28;20298;-60
2022/05/22 01:15:31;;;;;;;2.57;2.37;;;;;22.90;100760.00;;;;2054394;28;20223;-57
2022/05/22 01:16:32;;;;;;;2.33;2.13;;;;;22.90;100753.00;;;;2069948;28;20214;-56
2022/05/22 01:17:41;;;;;;;2.67;2.47;;;;;22.90;100740.00;;;;2070261;28;20214;-58
2022/05/22 01:18:46;;;;;;;2.58;2.30;;;;;22.90;100750.00;;;;2068790;28;20224;-56
2022/05/22 01:19:57;;;;;;;2.70;2.50;;;;;22.90;100749.00;;;;2070265;28;20228;-56
2022/05/22 01:20:57;;;;;;;2.88;2.63;;;;;22.90;100752.00;;;;2069220;28;20218;-58
2022/05/22 01:22:02;;;;;;;3.40;2.50;;;;;22.90;100753.00;;;;2070293;28;20203;-55
2022/05/22 01:23:03;;;;;;;2.53;2.17;;;;;22.90;100752.00;;;;2078004;28;20586;-58
2022/05/22 01:24:04;;;;;;;2.63;2.13;;;;;22.90;100751.00;;;;2069896;28;20225;-58
2022/05/22 01:25:05;;;;;;;3.22;2.63;;;;;22.90;100746.00;;;;2059617;28;20226;-58
2022/05/22 01:26:06;;;;;;;2.63;2.40;;;;;22.90;100751.00;;;;2060960;28;20273;-55
2022/05/22 01:27:10;;;;;;;2.40;2.10;;;;;22.90;100747.00;;;;2078090;28;20399;-55
2022/05/22 01:28:11;;;;;;;2.75;2.50;;;;;22.90;100748.00;;;;2078915;28;20209;-55
2022/05/22 01:29:11;;;;;;;3.25;2.95;;;;;22.90;100748.00;;;;2069793;28;20377;-58
2022/05/22 01:30:19;;;;;;;2.47;2.27;;;;;22.90;100740.00;;;;2069484;28;20206;-58
2022/05/22 01:31:19;;;;;;;2.65;2.45;;;;;22.90;100751.00;;;;2070096;28;20770;-58
2022/05/22 01:32:20;;;;;;;2.43;2.20;;;;;22.90;100751.00;;;;2070230;28;20214;-57
2022/05/22 01:33:21;;;;;;;2.70;2.50;;;;;22.90;100750.00;;;;2077695;28;20221;-58
2022/05/22 01:34:21;;;;;;;3.10;2.57;;;;;22.90;100744.00;;;;2078818;28;20210;-58
2022/05/22 01:35:24;;;;;;;2.50;2.30;;;;;22.90;100751.00;;;;2078168;28;20217;-58
2022/05/22 01:36:25;;;;;;;2.70;2.40;;;;;22.90;100740.00;;;;2078331;28;20217;-57
2022/05/22 01:37:25;;;;;;;2.70;2.50;;;;;22.90;100746.00;;;;2078724;28;20214;-56
2022/05/22 01:38:26;;;;;;;2.70;2.00;;;;;22.90;100739.00;;;;2078556;28;20267;-58
2022/05/22 01:39:26;;;;;;;3.17;2.40;;;;;22.90;100742.00;;;;2078019;28;20232;-58
2022/05/22 01:40:26;;;;;;;2.53;2.33;;;;;22.90;100744.00;;;;2069819;28;20218;-58
2022/05/22 01:41:27;;;;;;;2.70;2.50;;;;;22.90;100743.00;;;;2077951;28;20324;-55
2022/05/22 01:42:28;;;;;;;2.80;2.50;;;;;22.90;100749.00;;;;2078792;28;20248;-56
2022/05/22 01:43:29;;;;;;;2.63;2.42;;;;;22.90;100754.00;;;;2069517;28;20253;-58
2022/05/22 01:44:29;;;;;;;2.60;2.40;;;;;22.90;100753.00;;;;2065804;28;20210;-58
2022/05/22 01:45:29;;;;;;;2.87;2.57;;;;;22.90;100754.00;;;;2069845;28;20252;-58
2022/05/22 01:46:30;;;;;;;2.70;2.50;;;;;22.90;100754.00;;;;2070161;28;21201;-58
2022/05/22 01:47:34;;;;;;;2.77;2.57;;;;;22.90;100753.00;;;;2062364;28;20754;-58
2022/05/22 01:48:34;;;;;;;3.60;2.58;;;;;22.90;100756.00;;;;2068551;28;20214;-58
2022/05/22 01:49:34;;;;;;;2.40;2.17;;;;;22.90;100749.00;;;;2069902;28;20840;-58
2022/05/22 01:50:35;;;;;;;2.60;2.40;;;;;22.90;100759.00;;;;2070190;28;20206;-58
2022/05/22 01:51:37;;;;;;;2.27;2.07;;;;;22.90;100753.00;;;;2069193;28;20213;-57
2022/05/22 01:52:38;;;;;;;2.80;2.42;;;;;22.90;100747.00;;;;2053200;28;20805;-56
2022/05/22 01:53:38;;;;;;;2.90;2.57;;;;;22.90;100761.00;;;;2060612;28;20215;-58
2022/05/22 01:54:38;;;;;;;2.80;2.40;;;;;22.90;100755.00;;;;2059648;28;20321;-58
2022/05/22 01:55:39;;;;;;;3.00;2.43;;;;;22.80;100747.00;;;;2060475;28;20230;-57
2022/05/22 01:56:39;;;;;;;3.27;2.30;;;;;22.90;100759.00;;;;2069169;28;20753;-58
2022/05/22 01:57:40;;;;;;;3.10;2.50;;;;;22.90;100751.00;;;;2069068;28;20595;-58
2022/05/22 01:58:40;;;;;;;2.50;2.30;;;;;22.90;100750.00;;;;2069258;28;20288;-57
2022/05/22 01:59:41;;;;;;;2.70;2.50;;;;;22.90;100756.00;;;;2069754;28;20982;-58
2022/05/22 02:00:41;;;;;;;2.67;2.47;;;;;22.80;100756.00;;;;2070453;28;20732;-58
2022/05/22 02:01:42;;;;;;;1.97;1.80;;;;;22.90;100753.00;;;;2070223;28;20245;-56
2022/05/22 02:02:42;;;;;;;2.90;2.20;;;;;22.90;100748.00;;;;2069568;28;20927;-57
2022/05/22 02:03:43;;;;;;;2.87;2.60;;;;;22.90;100747.00;;;;2068850;28;20392;-58
2022/05/22 02:04:43;;;;;;;2.70;2.50;;;;;22.90;100754.00;;;;2067567;28;20222;-57
2022/05/22 02:05:43;;;;;;;2.70;2.50;;;;;22.90;100748.00;;;;2065248;28;20273;-58
2022/05/22 02:09:22;;;;;;;2.92;2.40;;;;;22.90;100745.00;;;;2068512;28;20297;-57
2022/05/22 02:10:24;;;;;;;2.57;2.37;;;;;22.90;100733.00;;;;2070423;28;20210;-58
2022/05/22 02:11:25;;;;;;;3.33;2.35;;;;;22.90;100739.00;;;;2070181;28;20731;-62
2022/05/22 02:12:25;;;;;;;2.40;2.20;;;;;22.80;100731.00;;;;2074090;28;20222;-59
2022/05/22 02:13:28;;;;;;;2.20;2.00;;;;;22.90;100726.00;;;;2075241;28;20291;-62
2022/05/22 02:14:28;;;;;;;2.70;2.30;;;;;22.80;100735.00;;;;2072022;28;20588;-59
2022/05/22 02:15:29;;;;;;;2.50;2.30;;;;;22.90;100730.00;;;;2073898;28;20213;-61
2022/05/22 02:16:29;;;;;;;3.07;2.43;;;;;22.80;100729.00;;;;2078032;28;20300;-59
2022/05/22 02:17:29;;;;;;;2.60;2.40;;;;;22.80;100737.00;;;;2070360;28;20974;-57
2022/05/22 02:18:30;;;;;;;2.40;2.10;;;;;22.80;100733.00;;;;2076924;28;20811;-57
2022/05/22 02:19:30;;;;;;;2.77;2.57;;;;;22.80;100728.00;;;;2076162;28;20864;-57
2022/05/22 02:20:30;;;;;;;2.33;2.13;;;;;22.80;100741.00;;;;2071363;28;20214;-58
2022/05/22 02:21:32;;;;;;;2.00;1.80;;;;;22.80;100692.00;;;;2079073;28;20214;-59
2022/05/22 02:22:32;;;;;;;2.65;2.45;;;;;22.80;100739.00;;;;2079258;28;20216;-58
2022/05/22 02:23:33;;;;;;;2.57;2.37;;;;;22.80;100739.00;;;;2075417;28;20217;-58
2022/05/22 02:24:34;;;;;;;3.20;2.50;;;;;22.80;100735.00;;;;2075234;28;20265;-57
2022/05/22 02:25:36;;;;;;;2.80;2.50;;;;;22.80;100715.00;;;;2078186;28;20221;-57
2022/05/22 02:26:36;;;;;;;3.80;3.15;;;;;22.80;100728.00;;;;2065694;28;20923;-57
2022/05/22 02:27:37;;;;;;;2.70;2.50;;;;;22.80;100719.00;;;;2077903;28;20210;-58
2022/05/22 02:28:38;;;;;;;2.43;2.23;;;;;22.80;100716.00;;;;2078476;28;20206;-59
2022/05/22 02:29:38;;;;;;;2.45;2.25;;;;;22.80;100725.00;;;;2068973;28;20264;-56
2022/05/22 02:30:39;;;;;;;2.67;2.47;;;;;22.80;100713.00;;;;2070229;28;20376;-56
2022/05/22 02:31:39;;;;;;;2.90;2.67;;;;;22.80;100710.00;;;;2070426;28;20218;-60
2022/05/22 02:32:40;;;;;;;3.30;2.53;;;;;22.80;100708.00;;;;2062545;28;20623;-60
2022/05/22 02:33:40;;;;;;;2.33;2.13;;;;;22.80;100705.00;;;;2078391;28;20594;-58
2022/05/22 02:34:40;;;;;;;3.13;2.30;;;;;22.80;100709.00;;;;2070146;28;20230;-58
2022/05/22 02:35:41;;;;;;;2.90;2.60;;;;;22.80;100700.00;;;;2078493;28;20852;-58
2022/05/22 02:36:41;;;;;;;3.00;2.60;;;;;22.80;100690.00;;;;2074641;28;20694;-56
2022/05/22 02:37:45;;;;;;;2.67;2.47;;;;;22.80;100688.00;;;;2066504;28;20635;-57
2022/05/22 02:38:45;;;;;;;2.63;2.35;;;;;22.80;100689.00;;;;2071552;28;20833;-58
2022/05/22 02:39:46;;;;;;;2.73;2.50;;;;;22.80;100702.00;;;;2086016;28;20212;-58
2022/05/22 02:40:46;;;;;;;2.67;2.47;;;;;22.80;100683.00;;;;2078269;28;20907;-57
2022/05/22 02:41:46;;;;;;;2.80;2.50;;;;;22.80;100682.00;;;;2078625;28;20209;-57
2022/05/22 02:42:48;;;;;;;2.50;2.30;;;;;22.80;100678.00;;;;2079910;28;20217;-58
2022/05/22 02:43:48;;;;;;;2.53;2.33;;;;;22.80;100674.00;;;;2073780;28;20222;-58
2022/05/22 02:44:48;;;;;;;2.30;2.10;;;;;22.80;100678.00;;;;2070757;28;20271;-58
2022/05/22 02:45:49;;;;;;;2.50;2.30;;;;;22.80;100672.00;;;;2075222;28;20213;-58
2022/05/22 02:46:49;;;;;;;3.10;2.20;;;;;22.80;100673.00;;;;2079396;28;20300;-58
2022/05/22 02:47:50;;;;;;;2.33;2.13;;;;;22.80;100677.00;;;;2079167;28;20364;-58
2022/05/22 02:48:50;;;;;;;3.30;2.67;;;;;22.80;100678.00;;;;2079551;28;20205;-58
2022/05/22 02:49:51;;;;;;;2.33;2.13;;;;;22.80;100680.00;;;;2067968;28;20325;-55
2022/05/22 02:50:55;;;;;;;2.67;2.33;;;;;22.80;100679.00;;;;2060674;28;20211;-58
2022/05/22 02:51:55;;;;;;;2.50;2.15;;;;;22.80;100671.00;;;;2055236;28;20325;-58
2022/05/22 02:52:56;;;;;;;2.70;2.50;;;;;22.80;100674.00;;;;2062763;28;20207;-58
2022/05/22 02:53:56;;;;;;;2.83;2.30;;;;;22.80;100678.00;;;;2062256;28;20234;-58
2022/05/22 02:54:56;;;;;;;3.10;2.70;;;;;22.80;100678.00;;;;2062033;28;20737;-56
2022/05/22 02:56:12;;;;;;;2.40;2.17;;;;;22.80;100671.00;;;;2069735;28;20218;-56
2022/05/22 02:57:12;;;;;;;2.83;2.53;;;;;22.80;100679.00;;;;2070361;28;20224;-59
2022/05/22 02:58:12;;;;;;;2.63;2.43;;;;;22.80;100674.00;;;;2070362;28;20225;-55
2022/05/22 02:59:13;;;;;;;2.90;2.20;;;;;22.80;100678.00;;;;2071145;28;20752;-56
2022/05/22 03:00:23;;;;;;;2.57;2.37;;;;;22.80;100686.00;;;;2070400;28;20885;-58
2022/05/22 03:01:24;;;;;;;3.00;2.67;;;;;22.80;100692.00;;;;2070357;28;20720;-57
2022/05/22 03:02:24;;;;;;;2.60;2.40;;;;;22.80;100688.00;;;;2070673;28;20211;-58
2022/05/22 03:03:24;;;;;;;2.60;2.40;;;;;22.80;100683.00;;;;2070113;28;20222;-58
2022/05/22 03:04:25;;;;;;;2.40;2.20;;;;;22.80;100690.00;;;;2071452;28;20230;-56
2022/05/22 03:05:26;;;;;;;3.07;2.77;;;;;22.80;100688.00;;;;2070145;28;20213;-58
2022/05/22 03:06:39;;;;;;;3.00;2.67;;;;;22.80;100687.00;;;;2070850;28;20226;-57
2022/05/22 03:07:39;;;;;;;3.38;2.40;;;;;22.80;100693.00;;;;2078765;28;20213;-56
2022/05/22 03:08:39;;;;;;;3.10;2.43;;;;;22.80;100687.00;;;;2076787;28;20240;-58
2022/05/22 03:09:41;;;;;;;2.77;2.33;;;;;22.80;100683.00;;;;2079565;28;20228;-58
2022/05/22 03:10:41;;;;;;;2.95;2.50;;;;;22.80;100679.00;;;;2077474;28;20221;-57
2022/05/22 03:11:42;;;;;;;2.77;2.57;;;;;22.80;100675.00;;;;2078979;28;20214;-57
2022/05/22 03:12:42;;;;;;;2.70;2.50;;;;;22.80;100681.00;;;;2070945;28;20226;-57
2022/05/22 03:13:42;;;;;;;3.50;2.70;;;;;22.80;100674.00;;;;2078922;28;20653;-57
2022/05/22 03:14:47;;;;;;;2.87;2.50;;;;;22.80;100673.00;;;;2074101;28;20242;-57
2022/05/22 03:15:48;;;;;;;3.13;2.42;;;;;22.80;100667.00;;;;2069931;28;20269;-58
2022/05/22 03:16:49;;;;;;;3.00;2.40;;;;;22.80;100668.00;;;;2070733;28;20214;-58
2022/05/22 03:17:49;;;;;;;2.30;2.10;;;;;22.80;100672.00;;;;2071006;28;20865;-57
2022/05/22 03:18:49;;;;;;;2.40;2.20;;;;;22.80;100672.00;;;;2070834;28;20218;-57
2022/05/22 03:19:50;;;;;;;3.77;2.13;;;;;22.80;100670.00;;;;2071552;28;20298;-57
2022/05/22 03:20:50;;;;;;;2.97;2.67;;;;;22.80;100673.00;;;;2070748;28;20214;-57
2022/05/22 03:21:51;;;;;;;2.70;2.50;;;;;22.80;100676.00;;;;2070491;28;20263;-57
2022/05/22 03:22:51;;;;;;;2.47;2.20;;;;;22.70;100673.00;;;;2076828;28;20252;-57
2022/05/22 03:23:51;;;;;;;2.70;2.23;;;;;22.80;100672.00;;;;2078875;28;20238;-57
2022/05/22 03:24:52;;;;;;;3.10;2.57;;;;;22.80;100675.00;;;;2079158;28;20210;-58
2022/05/22 03:25:52;;;;;;;2.83;2.40;;;;;22.80;100675.00;;;;2078687;28;20431;-57
2022/05/22 03:26:52;;;;;;;3.57;2.70;;;;;22.80;100675.00;;;;2079594;28;20756;-58
2022/05/22 03:27:53;;;;;;;2.80;2.60;;;;;22.80;100672.00;;;;2079758;28;21280;-57
2022/05/22 03:28:53;;;;;;;2.83;2.40;;;;;22.80;100675.00;;;;2079040;28;20201;-57
2022/05/22 03:29:53;;;;;;;3.13;2.40;;;;;22.80;100671.00;;;;2070643;28;20210;-57
2022/05/22 03:30:54;;;;;;;3.60;2.40;;;;;22.80;100672.00;;;;2070873;28;20959;-57
2022/05/22 03:31:54;;;;;;;2.57;2.37;;;;;22.80;100679.00;;;;2079696;28;20213;-57
2022/05/22 03:32:54;;;;;;;2.50;2.30;;;;;22.80;100677.00;;;;2079837;28;20205;-57
2022/05/22 03:33:55;;;;;;;2.33;2.13;;;;;22.70;100663.00;;;;2079563;28;20229;-57
2022/05/22 03:34:56;;;;;;;2.40;2.20;;;;;22.80;100661.00;;;;2079356;28;20761;-57
2022/05/22 03:35:56;;;;;;;2.67;2.47;;;;;22.80;100658.00;;;;2078217;28;20787;-57
2022/05/22 03:36:56;;;;;;;2.53;2.33;;;;;22.70;100658.00;;;;2079092;28;20585;-58
2022/05/22 03:37:57;;;;;;;2.93;2.63;;;;;22.80;100655.00;;;;2079098;28;20213;-56
2022/05/22 03:38:57;;;;;;;2.87;2.53;;;;;22.80;100660.00;;;;2070102;28;20207;-62
2022/05/22 03:39:57;;;;;;;2.50;2.30;;;;;22.70;100661.00;;;;2067150;28;20218;-60
2022/05/22 03:40:58;;;;;;;3.10;2.43;;;;;22.80;100655.00;;;;2074459;28;20581;-57
2022/05/22 03:41:59;;;;;;;3.00;2.70;;;;;22.70;100655.00;;;;2068163;28;20210;-57
2022/05/22 03:43:00;;;;;;;2.87;2.67;;;;;22.70;100659.00;;;;2079864;28;20233;-56
2022/05/22 03:44:00;;;;;;;3.40;2.63;;;;;22.70;100657.00;;;;2079829;28;20217;-57
2022/05/22 03:45:00;;;;;;;3.10;2.73;;;;;22.80;100657.00;;;;2079634;28;20206;-55
2022/05/22 03:46:01;;;;;;;3.07;2.50;;;;;22.70;100659.00;;;;2075809;28;20206;-57
2022/05/22 03:47:01;;;;;;;2.93;2.57;;;;;22.70;100655.00;;;;2072663;28;20249;-56
2022/05/22 03:48:01;;;;;;;3.20;2.60;;;;;22.70;100655.00;;;;2080978;28;20208;-59
2022/05/22 03:49:02;;;;;;;2.50;2.30;;;;;22.70;100655.00;;;;2080222;28;20697;-56
2022/05/22 03:50:04;;;;;;;3.13;2.60;;;;;22.80;100645.00;;;;2079829;28;20244;-56
2022/05/22 03:51:05;;;;;;;3.25;2.30;;;;;22.70;100639.00;;;;2079276;28;20249;-57
2022/05/22 03:52:06;;;;;;;2.60;2.40;;;;;22.70;100648.00;;;;2079517;28;20221;-57
2022/05/22 03:53:06;;;;;;;2.97;2.67;;;;;22.70;100642.00;;;;2079906;28;20760;-57
2022/05/22 03:54:06;;;;;;;2.50;2.30;;;;;22.70;100647.00;;;;2079675;28;21037;-57
2022/05/22 03:55:08;;;;;;;2.53;2.33;;;;;22.70;100637.00;;;;2079206;28;20256;-58
2022/05/22 03:56:12;;;;;;;2.92;2.63;;;;;22.70;100641.00;;;;2079128;28;20903;-57
2022/05/22 03:57:13;;;;;;;2.70;2.50;;;;;22.80;100642.00;;;;2079421;28;20209;-57
2022/05/22 03:58:15;;;;;;;2.60;2.40;;;;;22.80;100642.00;;;;2079125;28;20220;-57
2022/05/22 03:59:15;;;;;;;3.28;2.83;;;;;22.70;100633.00;;;;2062534;28;20256;-57
2022/05/22 04:00:17;;;;;;;2.93;2.67;;;;;22.70;100632.00;;;;2063153;28;20273;-57
2022/05/22 04:01:18;;;;;;;3.63;2.80;;;;;22.70;100626.00;;;;2073221;28;20716;-57
2022/05/22 04:02:18;;;;;;;2.63;2.43;;;;;22.70;100638.00;;;;2063801;28;20274;-56
2022/05/22 04:03:18;;;;;;;2.93;2.63;;;;;22.70;100638.00;;;;2063021;28;20598;-57
2022/05/22 04:04:19;;;;;;;2.63;2.43;;;;;22.70;100635.00;;;;2071481;28;20253;-55
2022/05/22 04:05:19;;;;;;;2.70;2.40;;;;;22.80;100641.00;;;;2071389;28;20218;-56
2022/05/22 04:06:20;;;;;;;3.23;2.70;;;;;22.70;100636.00;;;;2078981;28;20209;-58
2022/05/22 04:07:20;;;;;;;2.70;2.50;;;;;22.70;100635.00;;;;2078711;28;20791;-58
2022/05/22 04:08:20;;;;;;;3.03;2.53;;;;;22.70;100637.00;;;;2078557;28;20293;-58
2022/05/22 04:09:21;;;;;;;2.37;2.17;;;;;22.70;100632.00;;;;2073015;28;20238;-56
2022/05/22 04:10:22;;;;;;;2.90;2.60;;;;;22.70;100638.00;;;;2070965;28;20240;-57
2022/05/22 04:11:22;;;;;;;3.20;2.90;;;;;22.80;100633.00;;;;2070512;28;20241;-61
2022/05/22 04:12:23;;;;;;;2.60;2.40;;;;;22.70;100640.00;;;;2070499;28;20218;-60
2022/05/22 04:13:24;;;;;;;2.50;2.20;;;;;22.70;100639.00;;;;2062769;28;20707;-55
2022/05/22 04:14:24;;;;;;;3.00;2.70;;;;;22.70;100636.00;;;;2070704;28;20210;-58
2022/05/22 04:15:25;;;;;;;2.77;2.57;;;;;22.70;100633.00;;;;2070189;28;20210;-57
2022/05/22 04:16:25;;;;;;;2.97;2.67;;;;;22.70;100633.00;;;;2070962;28;20649;-55
2022/05/22 04:17:25;;;;;;;2.60;2.30;;;;;22.70;100637.00;;;;2070393;28;20998;-58
2022/05/22 04:18:26;;;;;;;3.60;2.67;;;;;22.70;100637.00;;;;2070842;28;20300;-56
2022/05/22 04:19:26;;;;;;;2.60;2.37;;;;;22.70;100644.00;;;;2067362;28;20265;-58
2022/05/22 04:20:27;;;;;;;2.87;2.67;;;;;22.70;100642.00;;;;2071236;28;20309;-58
2022/05/22 04:21:27;;;;;;;2.53;2.33;;;;;22.70;100642.00;;;;2071451;28;20226;-57
2022/05/22 04:22:27;;;;;;;2.90;2.50;;;;;22.70;100644.00;;;;2071020;28;20214;-56
2022/05/22 04:26:07;;;;;;;2.80;2.50;;;;;22.70;100634.00;;;;2069691;28;20226;-55
2022/05/22 04:27:07;;;;;;;2.88;2.40;;;;;22.70;100633.00;;;;2062614;28;20219;-58
2022/05/22 04:28:09;;;;;;;2.83;2.60;;;;;22.70;100635.00;;;;2062507;28;20242;-57
2022/05/22 04:29:09;;;;;;;3.25;2.70;;;;;22.80;100637.00;;;;2067572;28;20214;-58
2022/05/22 04:30:17;;;;;;;2.90;2.60;;;;;22.80;100631.00;;;;2070537;28;20264;-58
2022/05/22 04:31:17;;;;;;;2.90;2.60;;;;;22.70;100637.00;;;;2078719;28;20221;-57
2022/05/22 04:32:18;;;;;;;2.63;2.20;;;;;22.80;100650.00;;;;2068600;28;20222;-58
2022/05/22 04:33:18;;;;;;;2.30;2.10;;;;;22.70;100641.00;;;;2070548;28;20756;-57
2022/05/22 04:34:18;;;;;;;3.13;2.83;;;;;22.70;100644.00;;;;2070269;28;20666;-57
2022/05/22 04:35:19;;;;;;;2.77;2.57;;;;;22.80;100651.00;;;;2070031;28;20221;-54
2022/05/22 04:36:20;;;;;;;2.57;2.23;;;;;22.70;100648.00;;;;2070425;28;20295;-58
2022/05/22 04:37:20;;;;;;;3.00;2.70;;;;;22.70;100645.00;;;;2054248;28;20603;-58
2022/05/22 04:38:20;;;;;;;3.43;2.50;;;;;22.80;100646.00;;;;2070670;28;20264;-57
2022/05/22 04:39:21;;;;;;;2.70;2.47;;;;;22.80;100648.00;;;;2077961;28;20209;-58
2022/05/22 04:40:21;;;;;;;2.63;2.43;;;;;22.80;100648.00;;;;2078801;28;20244;-58
2022/05/22 04:41:21;;;;;;;2.97;2.57;;;;;22.70;100646.00;;;;2079104;28;20298;-58
2022/05/22 04:42:22;;;;;;;2.50;2.17;;;;;22.70;100639.00;;;;2077671;28;20209;-58
2022/05/22 04:43:23;;;;;;;2.63;2.43;;;;;22.70;100648.00;;;;2078556;28;20628;-58
2022/05/22 04:44:23;;;;;;;2.17;1.98;;;;;22.70;100649.00;;;;2070157;28;20297;-58
2022/05/22 04:45:23;;;;;;;3.10;2.43;;;;;22.70;100644.00;;;;2077485;28;20205;-56
2022/05/22 04:46:25;;;;;;;3.10;2.60;;;;;22.70;100645.00;;;;2078510;28;20308;-58
2022/05/22 04:47:25;;;;;;;2.50;2.30;;;;;22.70;100583.00;;;;2078212;28;20217;-57
2022/05/22 04:48:26;;;;;;;2.50;2.23;;;;;22.70;100647.00;;;;2079270;28;20577;-58
2022/05/22 04:49:26;;;;;;;2.70;2.50;;;;;22.80;100651.00;;;;2070067;28;20261;-57
2022/05/22 04:50:27;;;;;;;2.80;2.50;;;;;22.70;100649.00;;;;2070158;28;20309;-56
2022/05/22 04:51:27;;;;;;;2.50;2.30;;;;;22.70;100644.00;;;;2078700;28;20296;-63
2022/05/22 04:52:27;;;;;;;3.00;2.70;;;;;22.70;100648.00;;;;2078843;28;20213;-60
2022/05/22 04:53:28;;;;;;;2.97;2.67;;;;;22.70;100642.00;;;;2078633;28;20328;-60
2022/05/22 04:54:28;;;;;;;3.07;2.77;;;;;22.70;100647.00;;;;2069958;28;20217;-59
2022/05/22 04:55:30;;;;;;;2.90;2.60;;;;;22.70;100651.00;;;;2069182;28;20226;-57
2022/05/22 04:56:30;;;;;;;3.10;2.80;;;;;22.80;100652.00;;;;2078246;28;20550;-58
2022/05/22 04:57:30;;;;;;;3.10;2.80;;;;;22.80;100650.00;;;;2066567;28;20639;-55
2022/05/22 04:58:31;;;;;;;2.70;2.50;;;;;22.70;100648.00;;;;2069893;28;20265;-58
2022/05/22 04:59:31;;;;;;;2.90;2.70;;;;;22.70;100643.00;;;;2070973;28;20706;-56
2022/05/22 05:00:31;;;;;;;2.50;2.30;;;;;22.70;100649.00;;;;2069892;28;20228;-56
2022/05/22 05:01:32;;;;;;;2.47;2.27;;;;;22.70;100652.00;;;;2070188;28;20221;-58
2022/05/22 05:02:32;;;;;;;2.67;2.47;;;;;22.80;100654.00;;;;2070245;28;20502;-58
2022/05/22 05:03:33;;;;;;;3.00;2.70;;;;;22.70;100648.00;;;;2070707;28;20736;-58
2022/05/22 05:04:33;;;;;;;2.70;2.50;;;;;22.70;100655.00;;;;2075689;28;20296;-57
2022/05/22 05:05:34;;;;;;;2.93;2.73;;;;;22.70;100648.00;;;;2069172;28;21063;-56
2022/05/22 05:06:34;;;;;;;2.60;2.40;;;;;22.70;100651.00;;;;2061690;28;20214;-57
2022/05/22 05:07:40;;;;;;;2.50;2.30;;;;;22.70;100643.00;;;;2067655;28;20210;-58
2022/05/22 05:08:41;;;;;;;2.47;2.28;;;;;22.70;100642.00;;;;2061964;28;20221;-58
2022/05/22 05:09:41;;;;;;;2.50;2.30;;;;;22.70;100646.00;;;;2046082;28;20212;-59